Flight Track Log - Related Links

Times and Time Zones

All times are in EDT time to prevent confusion due to time zone crossing. See the UAL479 flight status page for this flight to view local times or setup timezone preferences in your user account.

Time Position Orientation Groundspeed Altitude Reporting Facility
EDT Latitude Longitude Course Direction KTS MPH feet Rate Location/Type
Sat 05:11:26 PM 29.9639 -95.3433 98° East 141 162 800  Level Houston Center
Sat 05:12:40 PM 29.9525 -95.2856 103° East 196 226 2,400 1,887 Climbing Houston Center
Sat 05:13:30 PM 29.9531 -95.2047 90° East 276 318 4,700 2,710 Climbing Houston Center
Sat 05:14:00 PM 29.9212 -94.9123 97° East  Level FlightAware Approximate
Sat 05:14:44 PM 29.9628 -95.0986 84° East 278 320 8,000  Level Houston Center
Sat 05:15:00 PM 29.9087 -94.7705 95° East  Level FlightAware Approximate
Sat 05:15:46 PM 29.9475 -95.0019 100° East 300 345 10,600  Level Houston Center
Sat 05:16:00 PM 29.8956 -94.6289 98° East  Level FlightAware Approximate
Sat 05:16:48 PM 29.9350 -94.8906 97° East 336 387 11,900  Level Houston Center
Sat 05:17:50 PM 29.9183 -94.7647 99° East 389 448 13,300 1,536 Climbing Houston Center
Sat 05:18:53 PM 29.9017 -94.6314 98° East 416 479 15,100 1,776 Climbing Houston Center
Sat 05:19:55 PM 29.8847 -94.4936 98° East 432 497 17,000 1,887 Climbing Houston Center
Sat 05:20:57 PM 29.8633 -94.3233 98° East 444 511 19,000 1,452 Climbing Houston Center
Sat 05:21:59 PM 29.8581 -94.1675 92° East 470 541 20,000 1,210 Climbing Houston Center
Sat 05:23:01 PM 29.8556 -94.0131 91° East 484 557 21,500 1,548 Climbing Houston Center
Sat 05:24:03 PM 29.8733 -93.8603 82° East 486 559 23,200 1,500 Climbing Houston Center
Sat 05:25:05 PM 29.8906 -93.7083 83° East 482 555 24,600 774 Climbing Houston Center
Sat 05:26:07 PM 29.9058 -93.5503 84° East 500 575 24,800 484 Climbing Houston Center
Sat 05:27:09 PM 29.9256 -93.3544 83° East 516 594 25,600 823 Climbing Houston Center
Sat 05:28:11 PM 29.9425 -93.1867 83° East 529 609 26,500 1,065 Climbing Houston Center
Sat 05:29:13 PM 29.9589 -93.0203 83° East 529 609 27,800 1,306 Climbing Houston Center
Sat 05:30:15 PM 29.9753 -92.8575 83° East 514 592 29,200 1,355 Climbing Houston Center
Sat 05:31:17 PM 29.9878 -92.6953 85° East 512 589 30,600 1,306 Climbing Houston Center
Sat 05:32:19 PM 30.0031 -92.4992 85° East 513 590 31,900 1,161 Climbing Houston Center
Sat 05:33:21 PM 30.0361 -92.3417 76° East 509 586 33,000 726 Climbing Houston Center
Sat 05:34:23 PM 30.0819 -92.1853 71° East 513 590 33,400 581 Climbing Houston Center
Sat 05:35:25 PM 30.1278 -92.0278 71° East 518 596 34,200 726 Climbing Houston Center
Sat 05:36:27 PM 30.1719 -91.8681 72° East 522 601 34,900 387 Climbing Houston Center
Sat 05:37:29 PM 30.2242 -91.6875 71° East 520 598 35,000 48 Climbing Houston Center
Sat 05:38:31 PM 30.2683 -91.5283 72° East 522 601 35,000  Level Houston Center
Sat 05:39:33 PM 30.3142 -91.3678 72° East 524 603 35,000  Level Houston Center
Sat 05:40:35 PM 30.3606 -91.2042 72° East 532 612 35,000  Level Houston Center
Sat 05:41:37 PM 30.4053 -91.0428 72° East 530 610 35,000  Level Houston Center
Sat 05:42:39 PM 30.4594 -90.8469 72° East 531 611 35,000  Level Houston Center
Sat 05:43:41 PM 30.5042 -90.6825 72° East 533 613 35,000  Level Houston Center
Sat 05:44:43 PM 30.5494 -90.5192 72° East 534 615 35,000  Level Houston Center
Sat 05:45:45 PM 30.5939 -90.3542 73° East 533 613 35,000  Level Houston Center
Sat 05:46:47 PM 30.6386 -90.1872 73° East 536 617 35,000  Level Houston Center
Sat 05:47:49 PM 30.6831 -90.0214 73° East 536 617 35,000  Level Houston Center
Sat 05:48:51 PM 30.7275 -89.8550 73° East 535 616 35,000  Level Houston Center
Sat 05:49:53 PM 30.7722 -89.6878 73° East 537 618 35,000  Level Houston Center
Sat 05:50:54 PM 30.8250 -89.4878 73° East 535 616 35,000  Level Houston Center
Sat 05:51:56 PM 30.8678 -89.3214 73° East 535 616 35,000  Level Houston Center
Sat 05:52:58 PM 30.9247 -89.1611 67° East 536 617 35,000  Level Houston Center
Sat 05:54:00 PM 30.9958 -89.0103 61° Northeast 533 613 35,000  Level Houston Center
Sat 05:55:02 PM 31.0753 -88.8403 61° Northeast 531 611 35,000  Level Houston Center
Sat 05:56:04 PM 31.1469 -88.6889 61° Northeast 529 609 35,000  Level Houston Center
Sat 05:57:06 PM 31.2083 -88.5581 61° Northeast 528 608 35,000  Level Houston Center
Sat 05:58:08 PM 31.2908 -88.3861 61° Northeast 526 605 35,000  Level Houston Center
Sat 05:58:23 PM 31.3061 -88.3572 58° Northeast 529 609 35,000  Level Atlanta Center
Sat 05:59:23 PM 31.3758 -88.2075 61° Northeast 529 609 35,000  Level Atlanta Center
Sat 06:00:23 PM 31.4478 -88.0550 61° Northeast 529 609 35,000  Level Atlanta Center
Sat 06:01:23 PM 31.5217 -87.8903 62° Northeast 529 609 35,000  Level Atlanta Center
Sat 06:02:23 PM 31.5911 -87.7372 62° Northeast 524 603 35,000  Level Atlanta Center
Sat 06:03:23 PM 31.6603 -87.5886 61° Northeast 524 603 35,000  Level Atlanta Center
Sat 06:04:23 PM 31.7292 -87.4375 62° Northeast 524 603 35,000  Level Atlanta Center
Sat 06:05:23 PM 31.7850 -87.3006 64° Northeast 524 603 35,000  Level Atlanta Center
Sat 06:06:23 PM 31.8536 -87.1514 62° Northeast 519 597 35,000  Level Atlanta Center
Sat 06:07:23 PM 31.9197 -87.0044 62° Northeast 514 592 35,000  Level Atlanta Center
Sat 06:08:23 PM 31.9881 -86.8500 62° Northeast 514 592 35,000  Level Atlanta Center
Sat 06:09:23 PM 32.0667 -86.6906 60° Northeast 508 585 35,000  Level Atlanta Center
Sat 06:10:23 PM 32.1306 -86.5381 64° Northeast 508 585 35,000  Level Atlanta Center
Sat 06:11:24 PM 32.1981 -86.3903 62° Northeast 513 590 35,000  Level Atlanta Center
Sat 06:12:24 PM 32.2589 -86.2617 61° Northeast 503 579 35,000  Level Atlanta Center
Sat 06:13:23 PM 32.3531 -86.1289 50° Northeast 508 585 35,000  Level Atlanta Center
Sat 06:14:23 PM 32.4386 -85.9978 52° Northeast 501 577 35,000  Level Atlanta Center
Sat 06:15:23 PM 32.5411 -85.8497 51° Northeast 518 596 35,000  Level Atlanta Center
Sat 06:16:23 PM 32.6286 -85.7183 52° Northeast 523 602 35,000  Level Atlanta Center
Sat 06:17:23 PM 32.7158 -85.5844 52° Northeast 517 595 35,000  Level Atlanta Center
Sat 06:18:23 PM 32.8031 -85.4525 52° Northeast 512 589 35,000  Level Atlanta Center
Sat 06:19:23 PM 32.8922 -85.3228 51° Northeast 507 583 35,000  Level Atlanta Center
Sat 06:20:23 PM 32.9769 -85.1903 53° Northeast 512 589 35,000  Level Atlanta Center
Sat 06:21:23 PM 33.0572 -85.0772 50° Northeast 500 575 35,000  Level Atlanta Center
Sat 06:22:23 PM 33.1439 -84.9394 53° Northeast 506 582 35,000  Level Atlanta Center
Sat 06:23:23 PM 33.2367 -84.7964 52° Northeast 506 582 35,000  Level Atlanta Center
Sat 06:24:23 PM 33.3250 -84.6603 52° Northeast 511 588 35,000  Level Atlanta Center
Sat 06:25:23 PM 33.4133 -84.5267 52° Northeast 511 588 35,000  Level Atlanta Center
Sat 06:26:23 PM 33.4953 -84.3950 53° Northeast 511 588 35,000  Level Atlanta Center
Sat 06:27:23 PM 33.5811 -84.2583 53° Northeast 511 588 35,000  Level Atlanta Center
Sat 06:28:24 PM 33.6689 -84.1236 52° Northeast 511 588 35,000  Level Atlanta Center
Sat 06:29:23 PM 33.7544 -83.9914 52° Northeast 506 582 35,000  Level Atlanta Center
Sat 06:30:23 PM 33.8400 -83.8561 53° Northeast 512 589 35,000  Level Atlanta Center
Sat 06:31:23 PM 33.9233 -83.7233 53° Northeast 507 583 35,000  Level Atlanta Center
Sat 06:32:23 PM 34.0083 -83.5878 53° Northeast 507 583 35,000  Level Atlanta Center
Sat 06:33:23 PM 34.0933 -83.4544 52° Northeast 507 583 35,000  Level Atlanta Center
Sat 06:34:23 PM 34.1783 -83.3206 52° Northeast 507 583 35,000  Level Atlanta Center
Sat 06:35:23 PM 34.2589 -83.1842 54° Northeast 507 583 35,000  Level Atlanta Center
Sat 06:36:23 PM 34.3433 -83.0475 53° Northeast 512 589 35,000  Level Atlanta Center
Sat 06:37:23 PM 34.4297 -82.9156 52° Northeast 501 577 35,000  Level Atlanta Center
Sat 06:38:24 PM 34.5119 -82.7808 53° Northeast 501 577 35,000  Level Atlanta Center
Sat 06:39:23 PM 34.5836 -82.6586 55° Northeast 501 577 35,000  Level Atlanta Center
Sat 06:40:23 PM 34.6719 -82.5258 51° Northeast 501 577 35,000  Level Atlanta Center
Sat 06:41:23 PM 34.7556 -82.3853 54° Northeast 501 577 35,000  Level Atlanta Center
Sat 06:42:23 PM 34.8394 -82.2494 53° Northeast 501 577 35,000  Level Atlanta Center
Sat 06:43:23 PM 34.9308 -82.1006 53° Northeast 506 582 35,000  Level Atlanta Center
Sat 06:44:23 PM 35.0142 -81.9617 54° Northeast 506 582 35,000  Level Atlanta Center
Sat 06:45:23 PM 35.0831 -81.8356 56° Northeast 506 582 35,000  Level Atlanta Center
Sat 06:46:23 PM 35.1597 -81.6939 56° Northeast 500 575 35,000  Level Atlanta Center
Sat 06:47:23 PM 35.2361 -81.5494 57° Northeast 500 575 35,000  Level Atlanta Center
Sat 06:48:23 PM 35.3083 -81.4072 58° Northeast 500 575 35,000  Level Atlanta Center
Sat 06:49:23 PM 35.3822 -81.2622 58° Northeast 500 575 35,000  Level Atlanta Center
Sat 06:50:23 PM 35.4581 -81.1167 57° Northeast 500 575 35,000  Level Atlanta Center
Sat 06:51:23 PM 35.5339 -80.9686 58° Northeast 506 582 35,000  Level Atlanta Center
Sat 06:52:23 PM 35.6114 -80.8253 56° Northeast 506 582 35,000  Level Atlanta Center
Sat 06:53:23 PM 35.6869 -80.6817 57° Northeast 500 575 35,000  Level Atlanta Center
Sat 06:54:23 PM 35.7600 -80.5381 58° Northeast 500 575 35,000 -568 Level Atlanta Center
Sat 06:56:12 PM 35.8958 -80.2664 58° Northeast 489 563 33,400 -710 Descending Washington Center
Sat 06:57:12 PM 35.9700 -80.1244 57° Northeast 482 555 33,000 -200 Descending Washington Center
Sat 06:58:12 PM 36.0350 -80.0022 57° Northeast 482 555 33,000  Level Washington Center
Sat 06:59:12 PM 36.1133 -79.8600 56° Northeast 477 549 33,000  Level Washington Center
Sat 07:00:12 PM 36.1933 -79.7178 55° Northeast 498 573 33,000 -450 Level Washington Center
Sat 07:01:12 PM 36.2800 -79.5653 55° Northeast 493 567 32,100 -1,250 Descending Washington Center
Sat 07:02:12 PM 36.3400 -79.4547 56° Northeast 488 562 30,500 -1,850 Descending Washington Center
Sat 07:03:12 PM 36.4261 -79.3014 55° Northeast 488 562 28,400 -2,000 Descending Washington Center
Sat 07:04:12 PM 36.4992 -79.1656 56° Northeast 488 562 26,500 -1,700 Descending Washington Center
Sat 07:05:12 PM 36.5758 -79.0397 53° Northeast 471 542 25,000 -750 Descending Washington Center
Sat 07:06:12 PM 36.6483 -78.9083 55° Northeast 466 536 25,000  Level Washington Center
Sat 07:07:12 PM 36.7278 -78.7536 57° Northeast 460 529 25,000  Level Washington Center
Sat 07:08:12 PM 36.7997 -78.6294 54° Northeast 477 549 25,000 -300 Level Washington Center
Sat 07:09:12 PM 36.8844 -78.5028 50° Northeast 477 549 24,400 -750 Descending Washington Center
Sat 07:10:12 PM 36.9908 -78.4056 36° Northeast 465 535 23,500 -1,000 Descending Washington Center
Sat 07:11:12 PM 37.1039 -78.3003 37° Northeast 465 535 22,400 -750 Descending Washington Center
Sat 07:12:12 PM 37.2083 -78.2022 37° Northeast 460 529 22,000 -200 Descending Washington Center
Sat 07:13:12 PM 37.3064 -78.1064 38° Northeast 454 522 22,000  Level Washington Center
Sat 07:14:12 PM 37.4083 -78.0103 37° Northeast 454 522 22,000  Level Washington Center
Sat 07:15:12 PM 37.5106 -77.9142 37° Northeast 454 522 22,000 -400 Level Washington Center
Sat 07:16:12 PM 37.6103 -77.8150 38° Northeast 454 522 21,200 -1,600 Descending Washington Center
Sat 07:17:12 PM 37.7103 -77.7206 37° Northeast 454 522 18,800 -2,200 Descending Washington Center
Sat 07:18:12 PM 37.8033 -77.6314 37° Northeast 438 504 16,800 -1,750 Descending Washington Center
Sat 07:19:12 PM 37.8967 -77.5444 36° Northeast 424 488 15,300 -1,450 Descending Washington Center
Sat 07:20:12 PM 37.9858 -77.4544 38° Northeast 419 482 13,900 -1,500 Descending Washington Center
Sat 07:21:12 PM 38.0744 -77.3697 37° Northeast 407 468 12,300 -1,500 Descending Washington Center
Sat 07:22:12 PM 38.1633 -77.2844 37° Northeast 402 463 10,900 -1,150 Descending Washington Center
Sat 07:23:12 PM 38.2458 -77.2017 38° Northeast 396 456 10,000 -450 Descending Washington Center
Sat 07:24:12 PM 38.3364 -77.1456 26° Northeast 374 430 10,000  Level Washington Center
Sat 07:25:12 PM 38.4386 -77.1264 North 359 413 10,000  Level Washington Center
Sat 07:26:12 PM 38.5411 -77.1047 North 359 413 10,000  Level Washington Center
Sat 07:27:12 PM 38.6353 -77.0853 North 359 413 10,000 -699 Level Washington Center
Sat 07:27:55 PM 38.7000 -77.0667 13° North 277 319 8,800 -2,272 Descending Potomac TRACON
Sat 07:28:55 PM 38.7667 -77.0667 360° North 288 331 6,100 -1,650 Descending Potomac TRACON
Sat 07:29:55 PM 38.8333 -77.1167 330° Northwest 233 268 5,500 -1,000 Descending Potomac TRACON
Sat 07:30:55 PM 38.8667 -77.1667 311° West 201 231 4,100 -1,250 Descending Potomac TRACON
Sat 07:31:55 PM 38.9000 -77.2167 311° West 207 238 3,000 -579 Descending Potomac TRACON
Sat 07:32:49 PM 38.9500 -77.2000 15° North 197 227 3,000 -263 Level Potomac TRACON
Sat 07:33:49 PM 38.9500 -77.1333 90° East 176 203 2,500 -750 Descending Potomac TRACON
Sat 07:34:49 PM 38.9167 -77.1167 159° South 157 181 1,500 -1,000 Descending Potomac TRACON

Login

Don't have an account? Register now (free) for customized features, flight alerts, and more!